Kleine Brogel, Belgium

10:43 PM CET on February 13, 2016 (GMT +0100)
Hof van Heijo | | Change Station
CLOSE
Current Station
Personal Weather Station
Location: Bocholt, VLAAMS GEWEST
Elevation: 138 ft
Nearby Weather Stations

Elev 138 ft 51.17 °N, 5.58 °E | Updated 2 minutes ago

Overcast
Overcast
37.6 °F
Feels Like 35 °F
N
4.0
Wind Variable Wind from NNE
Gusts 7.0 mph

Today
High -- | Low -- °F
--% Chance of Precip.
Yesterday
High -- | Low -- °F
Precip. -- in
Pressure 29.03 in
Visibility 3.7 miles
Clouds Scattered Clouds 500 ft
Overcast 600 ft
Windchill 35 °F
Dew Point 37 °F
Humidity 97%
Rainfall 0.07 in
Snow Depth Not available.
7:56 AM 5:49 PM
Waxing Crescent, 34% visible
SPECI EHEH 132126Z AUTO 06008KT 6000 BR SCT005 OVC006 03/02 Q0983 YLO 06009KT 7000 -RADZ SCT007 BKN010 OVC012 TEMPO 3000 DZ SCT005 BKN006 OVC008
Pressure 29.03 in
Visibility 3.7 miles
Clouds Scattered Clouds 500 ft
Overcast 600 ft
Windchill 35 °F
Dew Point 37 °F
Humidity 97%
Rainfall 0.07 in
Snow Depth Not available.
7:56 AM 5:49 PM
Waxing Crescent, 34% visible
SPECI EHEH 132126Z AUTO 06008KT 6000 BR SCT005 OVC006 03/02 Q0983 YLO 06009KT 7000 -RADZ SCT007 BKN010 OVC012 TEMPO 3000 DZ SCT005 BKN006 OVC008

10-Day Weather Forecast

Almanac

Astronomy

Feb. 13, 2016 Rise Set
Actual Time
Civil Twilight
Nautical Twilight
Astronomical Twilight
Moon
Length of Visible Light
Length of Day
Tomorrow will be .
, % of the Moon is Illuminated

Today's Extremes

Country Highs Country Lows

Community

WunderPhotos

Upload Photos

1,892,682 photos uploaded!

WunderBlog® & News

Nearby

Air Quality

  Air Quality AQ Index Pollutant
Not available.

Snow Depth

Station Depth Elevation

Earthquake Activity

City Distance Mag. Time & Date
Minimum magnitude displayed is 2.5.

Coastal Water Temperatures

Place Temperature

Stations

Nearby Weather Stations

Station Location Temp. Windchill Dew Point Humidity Wind Precip. Elev Updated Type